Kezdőlap
METAR-TAF:

METAR-TAF

Repülőterek :

Port Hawkesbury, Új-Skócia, Kanada

földrajzi szélesség: 45-40N, földrajzi hosszúság: 061-23W, magasság: 114 m

Jelenlegi meteorológiai megfigyelések

A jelentés 44 perccel ezelõtt készült, 13:00 UTC
Keleti szél 3 kt, északi és keleti között változik
Hőmérséklet -5°C
Páratartalom 79%
Légköri nyomás 1033 hPa
Látótávolság: 14.5 km
Borult 1200 lábon

METAR: CYPD 251300Z AUTO 08003KT 010V100 9SM OVC012 M05/M08 A3049 RMK SLP334

Idő: 09:44 (13:44 UTC)


TAF: hiányzik

Meteorológiai megfigyelések és előrejelzések több, mint 4000 repülőtéren (METAR és TAF jelentéseket).

A térképen piros és sárga pontok jelzik az elérhető meteorológiai állomásokat.

Mozgassa az egeret a pont fölött, hogy megjelenjen az állomás neve.

Azután kattintson az időjárási megfigyelések és előrejelzések megtekintéséhez.

A térkép megváltoztatása: kattintson a fekete keresztel jelölt zöld gombra ráközelítéshez, a vonallal jelölt zöld gombra távolításhoz, vagy a zöld nyilakra a szomszédos térképek eléréséhez.


METAR-TAF: